Terminal Aerodrome Forecast
Issued by NWS

Home | Current Version | Previous Version | Text Only | Print | Product List | Glossary On
Versions: 1 2 3 4 5 6 7 8 9 10 11 12 13 14 15 16 17 18
614
FTUS41 KBGM 101137
TAFITH
TAF
KITH 101137Z 1012/1112 VRB03KT P6SM OVC050
      TEMPO 1015/1019 1 1/2SM -SN OVC012
     FM101900 29011KT P6SM -SHSN OVC025
     FM110000 30009KT P6SM -SHSN OVC035=

USA.gov is the U.S. government's official web portal to all federal, state and local government web resources and services.